Farmersville's Hourly Summary for Friday, April 14, 2017
Hour Temp
(f)
RH
(%)
Solar Rad.
(MJ/m2)
Rainfall
(in)
Wind
(mph)
4/14/2017 12:00 AM 65 72 0 0 1.38
4/14/2017 1:00 AM 64 74 0 0 0.7
4/14/2017 2:00 AM 65 72 0 0 2.03
4/14/2017 3:00 AM 66 72 0 0 2.94
4/14/2017 4:00 AM 63 76 0 0 1.59
4/14/2017 5:00 AM 61 83 0 0 0.85
4/14/2017 6:00 AM 60 86 0 0 0.74
4/14/2017 7:00 AM 60 89 0 0 0.93
4/14/2017 8:00 AM 61 85 0.19 0 0.83
4/14/2017 9:00 AM 64 80 0.41 0 2.67
4/14/2017 10:00 AM 68 69 1.27 0 3.68
4/14/2017 11:00 AM 71 62 2.08 0 4.95
4/14/2017 12:00 PM 74 53 2.77 0 5.58
4/14/2017 1:00 PM 75 48 3.06 0 6.79
4/14/2017 2:00 PM 77 46 3.07 0 6.6
4/14/2017 3:00 PM 77 43 2.96 0 6.59
4/14/2017 4:00 PM 78 44 2.52 0 5.36
4/14/2017 5:00 PM 78 44 2.02 0 4.83
4/14/2017 6:00 PM 78 44 1.39 0 4.72
4/14/2017 7:00 PM 77 44 0.76 0 3.88
4/14/2017 8:00 PM 73 47 0.16 0 1.14
4/14/2017 9:00 PM 69 60 0 0 0.97
4/14/2017 10:00 PM 67 63 0 0 0.98
4/14/2017 11:00 PM 66 67 0 0 1.55
Data Summary 69 63 22.66 0.00 3.01